sensor_id;sensor_type;location;lat;lon;timestamp;pressure;altitude;pressure_sealevel;temperature;humidity
13486;BME280;6815;59.336;17.998;2023-07-20T00:00:25;52141.06;;;-145.37;56.95
13486;BME280;6815;59.336;17.998;2023-07-20T00:02:51;52161.03;;;-145.37;56.65
13486;BME280;6815;59.336;17.998;2023-07-20T00:05:17;52149.03;;;-145.37;57.34
13486;BME280;6815;59.336;17.998;2023-07-20T00:07:43;52153.03;;;-145.37;58.47
13486;BME280;6815;59.336;17.998;2023-07-20T00:10:09;52145.03;;;-145.37;58.48
13486;BME280;6815;59.336;17.998;2023-07-20T00:12:35;52133.06;;;-145.37;57.85
13486;BME280;6815;59.336;17.998;2023-07-20T00:15:01;52151.03;;;-145.37;57.89
13486;BME280;6815;59.336;17.998;2023-07-20T00:17:26;52133.06;;;-145.37;57.58
13486;BME280;6815;59.336;17.998;2023-07-20T00:19:51;52133.06;;;-145.37;57.83
13486;BME280;6815;59.336;17.998;2023-07-20T00:22:17;52188.97;;;-145.37;58.16
13486;BME280;6815;59.336;17.998;2023-07-20T00:24:42;52123.09;;;-145.37;58.77
13486;BME280;6815;59.336;17.998;2023-07-20T00:27:08;52131.06;;;-145.37;58.78
13486;BME280;6815;59.336;17.998;2023-07-20T00:29:34;52167.00;;;-145.37;58.74
13486;BME280;6815;59.336;17.998;2023-07-20T00:32:00;52143.06;;;-145.37;58.73
13486;BME280;6815;59.336;17.998;2023-07-20T00:34:26;52141.06;;;-145.37;59.55
13486;BME280;6815;59.336;17.998;2023-07-20T00:36:51;52099.13;;;-145.37;60.27
13486;BME280;6815;59.336;17.998;2023-07-20T00:39:16;52161.03;;;-145.37;60.63
13486;BME280;6815;59.336;17.998;2023-07-20T00:41:42;52147.03;;;-145.37;60.21
13486;BME280;6815;59.336;17.998;2023-07-20T00:44:07;52149.03;;;-145.37;60.08
13486;BME280;6815;59.336;17.998;2023-07-20T00:46:33;52184.97;;;-145.37;60.36
13486;BME280;6815;59.336;17.998;2023-07-20T00:48:58;52157.03;;;-145.37;61.15
13486;BME280;6815;59.336;17.998;2023-07-20T00:51:25;52137.06;;;-145.37;61.50
13486;BME280;6815;59.336;17.998;2023-07-20T00:53:52;52129.06;;;-145.37;61.12
13486;BME280;6815;59.336;17.998;2023-07-20T00:56:17;52139.06;;;-145.37;61.21
13486;BME280;6815;59.336;17.998;2023-07-20T00:58:43;52161.03;;;-145.37;61.23
13486;BME280;6815;59.336;17.998;2023-07-20T01:01:09;52182.97;;;-145.37;61.07
13486;BME280;6815;59.336;17.998;2023-07-20T01:03:34;52151.03;;;-145.37;60.80
13486;BME280;6815;59.336;17.998;2023-07-20T01:09:34;52151.03;;;-145.37;62.21
13486;BME280;6815;59.336;17.998;2023-07-20T01:12:06;52184.97;;;-145.37;61.43
13486;BME280;6815;59.336;17.998;2023-07-20T01:14:34;52165.00;;;-145.37;61.86
13486;BME280;6815;59.336;17.998;2023-07-20T01:16:59;52139.06;;;-145.37;62.01
13486;BME280;6815;59.336;17.998;2023-07-20T01:19:25;52165.00;;;-145.37;62.27
13486;BME280;6815;59.336;17.998;2023-07-20T01:33:41;52125.09;;;-145.37;62.57
13486;BME280;6815;59.336;17.998;2023-07-20T01:36:08;52186.97;;;-145.37;62.70
13486;BME280;6815;59.336;17.998;2023-07-20T01:38:36;52147.03;;;-145.37;63.27
13486;BME280;6815;59.336;17.998;2023-07-20T01:41:02;52141.06;;;-145.37;62.92
13486;BME280;6815;59.336;17.998;2023-07-20T01:43:28;52139.06;;;-145.37;63.89
13486;BME280;6815;59.336;17.998;2023-07-20T01:45:53;52157.03;;;-145.37;63.62
13486;BME280;6815;59.336;17.998;2023-07-20T01:48:18;52169.00;;;-145.37;63.28
13486;BME280;6815;59.336;17.998;2023-07-20T01:50:44;52177.00;;;-145.37;63.28
13486;BME280;6815;59.336;17.998;2023-07-20T01:53:09;52178.97;;;-145.37;64.36
13486;BME280;6815;59.336;17.998;2023-07-20T01:55:35;52155.03;;;-145.37;63.69
13486;BME280;6815;59.336;17.998;2023-07-20T01:58:00;52155.03;;;-145.37;63.90
13486;BME280;6815;59.336;17.998;2023-07-20T02:00:27;52145.03;;;-145.37;63.71
13486;BME280;6815;59.336;17.998;2023-07-20T02:02:52;52145.03;;;-145.37;63.40
13486;BME280;6815;59.336;17.998;2023-07-20T02:05:17;52143.06;;;-145.37;63.54
13486;BME280;6815;59.336;17.998;2023-07-20T02:07:43;52169.00;;;-145.37;63.80
13486;BME280;6815;59.336;17.998;2023-07-20T02:10:09;52153.03;;;-145.37;63.69
13486;BME280;6815;59.336;17.998;2023-07-20T02:12:35;52173.00;;;-145.37;63.79
13486;BME280;6815;59.336;17.998;2023-07-20T02:15:02;52133.06;;;-145.37;63.99
13486;BME280;6815;59.336;17.998;2023-07-20T02:17:27;52147.03;;;-145.37;64.34
13486;BME280;6815;59.336;17.998;2023-07-20T02:19:53;52173.00;;;-145.37;65.43
13486;BME280;6815;59.336;17.998;2023-07-20T02:22:20;52129.06;;;-145.37;66.72
13486;BME280;6815;59.336;17.998;2023-07-20T02:24:45;52254.84;;;-145.37;66.91
13486;BME280;6815;59.336;17.998;2023-07-20T02:27:11;52180.97;;;-145.37;66.42
13486;BME280;6815;59.336;17.998;2023-07-20T02:29:36;52182.97;;;-145.37;66.03
13486;BME280;6815;59.336;17.998;2023-07-20T02:32:02;52155.03;;;-145.37;66.91
13486;BME280;6815;59.336;17.998;2023-07-20T02:34:28;52274.81;;;-145.37;66.22
13486;BME280;6815;59.336;17.998;2023-07-20T02:36:53;52123.09;;;-145.37;66.62
13486;BME280;6815;59.336;17.998;2023-07-20T02:39:21;52111.13;;;-145.37;67.26
13486;BME280;6815;59.336;17.998;2023-07-20T02:41:47;52141.06;;;-145.37;66.31
13486;BME280;6815;59.336;17.998;2023-07-20T02:44:13;52157.03;;;-145.37;65.75
13486;BME280;6815;59.336;17.998;2023-07-20T02:46:39;52177.00;;;-145.37;65.49
13486;BME280;6815;59.336;17.998;2023-07-20T02:49:04;52173.00;;;-145.37;66.33
13486;BME280;6815;59.336;17.998;2023-07-20T02:51:30;52141.06;;;-145.37;65.71
13486;BME280;6815;59.336;17.998;2023-07-20T02:53:55;52131.06;;;-145.37;65.74
13486;BME280;6815;59.336;17.998;2023-07-20T02:56:20;52143.06;;;-145.37;66.39
13486;BME280;6815;59.336;17.998;2023-07-20T02:58:48;52178.97;;;-145.37;66.17
13486;BME280;6815;59.336;17.998;2023-07-20T03:01:13;52186.97;;;-145.37;66.16
13486;BME280;6815;59.336;17.998;2023-07-20T03:03:41;52184.97;;;-145.37;65.73
13486;BME280;6815;59.336;17.998;2023-07-20T03:06:11;52175.00;;;-145.37;66.11
13486;BME280;6815;59.336;17.998;2023-07-20T03:08:36;52161.03;;;-145.37;65.77
13486;BME280;6815;59.336;17.998;2023-07-20T03:11:02;52135.06;;;-145.37;65.42
13486;BME280;6815;59.336;17.998;2023-07-20T03:13:27;52113.09;;;-145.37;66.64
13486;BME280;6815;59.336;17.998;2023-07-20T03:15:53;52123.09;;;-145.37;66.79
13486;BME280;6815;59.336;17.998;2023-07-20T03:18:19;52153.03;;;-145.37;66.58
13486;BME280;6815;59.336;17.998;2023-07-20T03:20:44;52161.03;;;-145.37;67.01
13486;BME280;6815;59.336;17.998;2023-07-20T03:23:10;52147.03;;;-145.37;66.98
13486;BME280;6815;59.336;17.998;2023-07-20T03:25:35;52153.03;;;-145.37;66.39
13486;BME280;6815;59.336;17.998;2023-07-20T03:28:02;52169.00;;;-145.37;66.30
13486;BME280;6815;59.336;17.998;2023-07-20T03:30:28;52180.97;;;-145.37;66.42
13486;BME280;6815;59.336;17.998;2023-07-20T03:32:53;52171.00;;;-145.37;66.51
13486;BME280;6815;59.336;17.998;2023-07-20T03:35:19;52157.03;;;-145.37;66.55
13486;BME280;6815;59.336;17.998;2023-07-20T03:37:44;52177.00;;;-145.37;68.08
13486;BME280;6815;59.336;17.998;2023-07-20T03:40:09;52167.00;;;-145.37;68.09
13486;BME280;6815;59.336;17.998;2023-07-20T03:42:35;52159.03;;;-145.37;67.57
13486;BME280;6815;59.336;17.998;2023-07-20T03:45:01;52131.06;;;-145.37;67.33
13486;BME280;6815;59.336;17.998;2023-07-20T03:47:28;52157.03;;;-145.37;67.57
13486;BME280;6815;59.336;17.998;2023-07-20T03:49:53;52149.03;;;-145.37;67.06
13486;BME280;6815;59.336;17.998;2023-07-20T03:52:18;52129.06;;;-145.37;68.18
13486;BME280;6815;59.336;17.998;2023-07-20T03:54:44;52167.00;;;-145.37;67.96
13486;BME280;6815;59.336;17.998;2023-07-20T03:57:09;52155.03;;;-145.37;67.67
13486;BME280;6815;59.336;17.998;2023-07-20T03:59:36;52161.03;;;-145.37;68.26
13486;BME280;6815;59.336;17.998;2023-07-20T04:02:02;52117.09;;;-145.37;68.09
13486;BME280;6815;59.336;17.998;2023-07-20T04:04:29;52173.00;;;-145.37;67.62
13486;BME280;6815;59.336;17.998;2023-07-20T04:06:54;52149.03;;;-145.37;67.13
13486;BME280;6815;59.336;17.998;2023-07-20T04:09:20;52155.03;;;-145.37;68.28
13486;BME280;6815;59.336;17.998;2023-07-20T04:11:45;52159.03;;;-145.37;68.23
13486;BME280;6815;59.336;17.998;2023-07-20T04:14:10;52171.00;;;-145.37;68.39
13486;BME280;6815;59.336;17.998;2023-07-20T04:16:36;52149.03;;;-145.37;68.50
13486;BME280;6815;59.336;17.998;2023-07-20T04:19:02;52161.03;;;-145.37;68.60
13486;BME280;6815;59.336;17.998;2023-07-20T04:21:28;52161.03;;;-145.37;68.81
13486;BME280;6815;59.336;17.998;2023-07-20T04:23:53;52143.06;;;-145.37;68.45
13486;BME280;6815;59.336;17.998;2023-07-20T04:26:18;52180.97;;;-145.37;68.18
13486;BME280;6815;59.336;17.998;2023-07-20T04:28:44;52149.03;;;-145.37;67.47
13486;BME280;6815;59.336;17.998;2023-07-20T04:31:13;52151.03;;;-145.37;67.25
13486;BME280;6815;59.336;17.998;2023-07-20T04:33:39;52155.03;;;-145.37;66.89
13486;BME280;6815;59.336;17.998;2023-07-20T04:36:05;52127.09;;;-145.37;67.01
13486;BME280;6815;59.336;17.998;2023-07-20T04:38:30;52186.97;;;-145.37;66.40
13486;BME280;6815;59.336;17.998;2023-07-20T04:40:56;52145.03;;;-145.37;66.66
13486;BME280;6815;59.336;17.998;2023-07-20T04:43:21;52151.03;;;-145.37;68.23
13486;BME280;6815;59.336;17.998;2023-07-20T04:45:47;52180.97;;;-145.37;68.14
13486;BME280;6815;59.336;17.998;2023-07-20T04:48:16;52171.00;;;-145.37;68.39
13486;BME280;6815;59.336;17.998;2023-07-20T04:50:44;52159.03;;;-145.37;67.92
13486;BME280;6815;59.336;17.998;2023-07-20T04:53:10;52135.06;;;-145.37;67.76
13486;BME280;6815;59.336;17.998;2023-07-20T04:55:36;52135.06;;;-145.37;68.31
13486;BME280;6815;59.336;17.998;2023-07-20T04:58:03;52266.81;;;-145.37;66.90
13486;BME280;6815;59.336;17.998;2023-07-20T05:00:29;52119.09;;;-145.37;65.72
13486;BME280;6815;59.336;17.998;2023-07-20T05:02:55;52125.09;;;-145.37;64.73
13486;BME280;6815;59.336;17.998;2023-07-20T05:05:21;52163.00;;;-145.37;63.68
13486;BME280;6815;59.336;17.998;2023-07-20T05:07:46;52161.03;;;-145.37;63.46
13486;BME280;6815;59.336;17.998;2023-07-20T05:10:12;52101.13;;;-145.37;61.96
13486;BME280;6815;59.336;17.998;2023-07-20T05:12:37;52159.03;;;-145.37;61.26
13486;BME280;6815;59.336;17.998;2023-07-20T05:15:04;52083.16;;;-145.37;60.77
13486;BME280;6815;59.336;17.998;2023-07-20T05:17:29;52145.03;;;-145.37;59.62
13486;BME280;6815;59.336;17.998;2023-07-20T05:19:56;52081.16;;;-145.37;59.37
13486;BME280;6815;59.336;17.998;2023-07-20T05:22:21;52129.06;;;-145.37;58.34
13486;BME280;6815;59.336;17.998;2023-07-20T05:24:47;52129.06;;;-145.37;57.23
13486;BME280;6815;59.336;17.998;2023-07-20T05:27:12;52137.06;;;-145.37;56.16
13486;BME280;6815;59.336;17.998;2023-07-20T05:29:40;52115.09;;;-145.37;56.63
13486;BME280;6815;59.336;17.998;2023-07-20T05:32:08;52129.06;;;-145.37;55.85
13486;BME280;6815;59.336;17.998;2023-07-20T05:34:35;52115.09;;;-145.37;55.01
13486;BME280;6815;59.336;17.998;2023-07-20T05:37:00;52105.13;;;-145.37;54.69
13486;BME280;6815;59.336;17.998;2023-07-20T05:39:25;52135.06;;;-145.37;54.62
13486;BME280;6815;59.336;17.998;2023-07-20T05:41:51;52101.13;;;-145.37;52.89
13486;BME280;6815;59.336;17.998;2023-07-20T05:44:16;52125.09;;;-145.37;52.08
13486;BME280;6815;59.336;17.998;2023-07-20T05:46:41;52107.13;;;-145.37;51.17
13486;BME280;6815;59.336;17.998;2023-07-20T05:49:07;52113.09;;;-145.37;51.40
13486;BME280;6815;59.336;17.998;2023-07-20T05:51:32;52167.00;;;-145.37;51.36
13486;BME280;6815;59.336;17.998;2023-07-20T05:53:58;52109.13;;;-145.37;51.66
13486;BME280;6815;59.336;17.998;2023-07-20T05:56:23;52103.13;;;-145.37;50.97
13486;BME280;6815;59.336;17.998;2023-07-20T05:58:48;52093.16;;;-145.37;50.90
13486;BME280;6815;59.336;17.998;2023-07-20T06:01:14;52129.06;;;-145.37;51.51
13486;BME280;6815;59.336;17.998;2023-07-20T06:03:39;52103.13;;;-145.37;50.67
13486;BME280;6815;59.336;17.998;2023-07-20T06:06:04;52097.13;;;-145.37;50.63
13486;BME280;6815;59.336;17.998;2023-07-20T06:08:31;52129.06;;;-145.37;50.89
13486;BME280;6815;59.336;17.998;2023-07-20T06:10:57;52085.16;;;-145.37;49.59
13486;BME280;6815;59.336;17.998;2023-07-20T06:13:22;52065.19;;;-145.37;49.30
13486;BME280;6815;59.336;17.998;2023-07-20T06:15:48;52081.16;;;-145.37;49.03
13486;BME280;6815;59.336;17.998;2023-07-20T06:18:14;52127.09;;;-145.37;50.29
13486;BME280;6815;59.336;17.998;2023-07-20T06:20:39;52089.16;;;-145.37;49.49
13486;BME280;6815;59.336;17.998;2023-07-20T06:23:05;52077.19;;;-145.37;48.97
13486;BME280;6815;59.336;17.998;2023-07-20T06:25:30;52105.13;;;-145.37;48.52
13486;BME280;6815;59.336;17.998;2023-07-20T06:27:56;52067.19;;;-145.37;47.54
13486;BME280;6815;59.336;17.998;2023-07-20T06:30:21;52089.16;;;-145.37;47.78
13486;BME280;6815;59.336;17.998;2023-07-20T06:32:47;52093.16;;;-145.37;47.55
13486;BME280;6815;59.336;17.998;2023-07-20T06:35:13;52105.13;;;-145.37;47.21
13486;BME280;6815;59.336;17.998;2023-07-20T06:37:38;52093.16;;;-145.37;47.50
13486;BME280;6815;59.336;17.998;2023-07-20T06:40:04;52093.16;;;-145.37;47.40
13486;BME280;6815;59.336;17.998;2023-07-20T06:42:30;52081.16;;;-145.37;46.43
13486;BME280;6815;59.336;17.998;2023-07-20T06:44:57;52085.16;;;-145.37;46.56
13486;BME280;6815;59.336;17.998;2023-07-20T06:47:22;52095.16;;;-145.37;46.86
13486;BME280;6815;59.336;17.998;2023-07-20T06:49:48;52067.19;;;-145.37;46.55
13486;BME280;6815;59.336;17.998;2023-07-20T06:52:13;52087.16;;;-145.37;46.71
13486;BME280;6815;59.336;17.998;2023-07-20T06:54:39;52087.16;;;-145.37;46.87
13486;BME280;6815;59.336;17.998;2023-07-20T06:57:05;52097.13;;;-145.37;47.09
13486;BME280;6815;59.336;17.998;2023-07-20T06:59:30;52099.13;;;-145.37;47.36
13486;BME280;6815;59.336;17.998;2023-07-20T07:01:56;52091.16;;;-145.37;47.35
13486;BME280;6815;59.336;17.998;2023-07-20T07:04:21;52073.19;;;-145.37;46.66
13486;BME280;6815;59.336;17.998;2023-07-20T07:06:47;52085.16;;;-145.37;46.66
13486;BME280;6815;59.336;17.998;2023-07-20T07:09:13;52075.19;;;-145.37;47.22
13486;BME280;6815;59.336;17.998;2023-07-20T07:11:39;52081.16;;;-145.37;48.50
13486;BME280;6815;59.336;17.998;2023-07-20T07:14:04;52083.16;;;-145.37;48.28
13486;BME280;6815;59.336;17.998;2023-07-20T07:16:29;52093.16;;;-145.37;47.52
13486;BME280;6815;59.336;17.998;2023-07-20T07:18:55;52093.16;;;-145.37;46.52
13486;BME280;6815;59.336;17.998;2023-07-20T07:21:20;52055.22;;;-145.37;46.70
13486;BME280;6815;59.336;17.998;2023-07-20T07:23:46;52151.03;;;-145.37;46.29
13486;BME280;6815;59.336;17.998;2023-07-20T07:26:12;52095.16;;;-145.37;46.85
13486;BME280;6815;59.336;17.998;2023-07-20T07:28:38;52101.13;;;-145.37;46.63
13486;BME280;6815;59.336;17.998;2023-07-20T07:31:06;52021.28;;;-145.37;47.04
13486;BME280;6815;59.336;17.998;2023-07-20T07:33:32;52133.06;;;-145.37;46.41
13486;BME280;6815;59.336;17.998;2023-07-20T07:35:58;52087.16;;;-145.37;45.23
13486;BME280;6815;59.336;17.998;2023-07-20T07:38:23;52115.09;;;-145.37;45.60
13486;BME280;6815;59.336;17.998;2023-07-20T07:40:49;52119.09;;;-145.37;46.04
13486;BME280;6815;59.336;17.998;2023-07-20T07:43:14;52125.09;;;-145.37;46.96
13486;BME280;6815;59.336;17.998;2023-07-20T07:45:40;52073.19;;;-145.37;47.31
13486;BME280;6815;59.336;17.998;2023-07-20T07:48:06;52119.09;;;-145.37;46.78
13486;BME280;6815;59.336;17.998;2023-07-20T07:50:32;52087.16;;;-145.37;47.23
13486;BME280;6815;59.336;17.998;2023-07-20T07:52:58;52127.09;;;-145.37;47.21
13486;BME280;6815;59.336;17.998;2023-07-20T07:55:24;52089.16;;;-145.37;46.83
13486;BME280;6815;59.336;17.998;2023-07-20T07:57:52;52085.16;;;-145.37;46.09
13486;BME280;6815;59.336;17.998;2023-07-20T08:00:17;52125.09;;;-145.37;45.78
13486;BME280;6815;59.336;17.998;2023-07-20T08:02:44;52109.13;;;-145.37;45.93
13486;BME280;6815;59.336;17.998;2023-07-20T08:05:11;52113.09;;;-145.37;45.97
13486;BME280;6815;59.336;17.998;2023-07-20T08:07:37;52113.09;;;-145.37;45.87
13486;BME280;6815;59.336;17.998;2023-07-20T08:10:04;52095.16;;;-145.37;46.23
13486;BME280;6815;59.336;17.998;2023-07-20T08:12:30;52224.91;;;-145.37;45.83
13486;BME280;6815;59.336;17.998;2023-07-20T08:14:55;52206.94;;;-145.37;45.55
13486;BME280;6815;59.336;17.998;2023-07-20T08:17:20;52097.13;;;-145.37;45.77
13486;BME280;6815;59.336;17.998;2023-07-20T08:19:46;52125.09;;;-145.37;45.97
13486;BME280;6815;59.336;17.998;2023-07-20T08:22:11;52129.06;;;-145.37;45.39
13486;BME280;6815;59.336;17.998;2023-07-20T08:24:41;52109.13;;;-145.37;46.25
13486;BME280;6815;59.336;17.998;2023-07-20T08:27:06;52113.09;;;-145.37;45.63
13486;BME280;6815;59.336;17.998;2023-07-20T08:29:32;52109.13;;;-145.37;45.70
13486;BME280;6815;59.336;17.998;2023-07-20T08:31:57;52131.06;;;-145.37;45.69
13486;BME280;6815;59.336;17.998;2023-07-20T08:34:23;52165.00;;;-145.37;45.17
13486;BME280;6815;59.336;17.998;2023-07-20T08:36:48;52119.09;;;-145.37;44.79
13486;BME280;6815;59.336;17.998;2023-07-20T08:39:14;52109.13;;;-145.37;44.34
13486;BME280;6815;59.336;17.998;2023-07-20T08:41:42;52105.13;;;-145.37;44.04
13486;BME280;6815;59.336;17.998;2023-07-20T08:44:08;52073.19;;;-145.37;44.09
13486;BME280;6815;59.336;17.998;2023-07-20T08:46:35;52125.09;;;-145.37;43.79
13486;BME280;6815;59.336;17.998;2023-07-20T08:49:00;52147.03;;;-145.37;44.29
13486;BME280;6815;59.336;17.998;2023-07-20T08:51:28;52143.06;;;-145.37;44.05
13486;BME280;6815;59.336;17.998;2023-07-20T08:53:54;52139.06;;;-145.37;44.81
13486;BME280;6815;59.336;17.998;2023-07-20T08:56:19;52119.09;;;-145.37;44.71
13486;BME280;6815;59.336;17.998;2023-07-20T08:58:46;52095.16;;;-145.37;44.87
13486;BME280;6815;59.336;17.998;2023-07-20T09:01:12;52105.13;;;-145.37;45.10
13486;BME280;6815;59.336;17.998;2023-07-20T09:03:38;52113.09;;;-145.37;44.95
13486;BME280;6815;59.336;17.998;2023-07-20T09:06:05;52097.13;;;-145.37;44.93
13486;BME280;6815;59.336;17.998;2023-07-20T09:08:31;52129.06;;;-145.37;45.75
13486;BME280;6815;59.336;17.998;2023-07-20T09:10:57;52105.13;;;-145.37;45.72
13486;BME280;6815;59.336;17.998;2023-07-20T09:13:24;52145.03;;;-145.37;45.87
13486;BME280;6815;59.336;17.998;2023-07-20T09:15:54;52109.13;;;-145.37;46.14
13486;BME280;6815;59.336;17.998;2023-07-20T09:18:27;52137.06;;;-145.37;45.88
13486;BME280;6815;59.336;17.998;2023-07-20T09:20:57;52129.06;;;-145.37;46.87
13486;BME280;6815;59.336;17.998;2023-07-20T09:25:57;52123.09;;;-145.37;45.39
13486;BME280;6815;59.336;17.998;2023-07-20T09:28:23;52113.09;;;-145.37;45.76
13486;BME280;6815;59.336;17.998;2023-07-20T09:30:48;52139.06;;;-145.37;45.80
13486;BME280;6815;59.336;17.998;2023-07-20T09:33:23;52115.09;;;-145.37;45.92
13486;BME280;6815;59.336;17.998;2023-07-20T09:35:48;52111.13;;;-145.37;46.15
13486;BME280;6815;59.336;17.998;2023-07-20T09:38:14;52125.09;;;-145.37;45.76
13486;BME280;6815;59.336;17.998;2023-07-20T09:40:40;52109.13;;;-145.37;45.71
13486;BME280;6815;59.336;17.998;2023-07-20T09:43:09;52157.03;;;-145.37;46.19
13486;BME280;6815;59.336;17.998;2023-07-20T09:45:41;52119.09;;;-145.37;45.76
13486;BME280;6815;59.336;17.998;2023-07-20T09:48:10;52139.06;;;-145.37;46.00
13486;BME280;6815;59.336;17.998;2023-07-20T09:50:43;52155.03;;;-145.37;46.49
13486;BME280;6815;59.336;17.998;2023-07-20T09:53:14;52103.13;;;-145.37;45.92
13486;BME280;6815;59.336;17.998;2023-07-20T09:55:44;52151.03;;;-145.37;46.23
13486;BME280;6815;59.336;17.998;2023-07-20T09:58:10;52105.13;;;-145.37;45.58
13486;BME280;6815;59.336;17.998;2023-07-20T10:00:37;52147.03;;;-145.37;44.72
13486;BME280;6815;59.336;17.998;2023-07-20T10:03:04;52157.03;;;-145.37;44.26
13486;BME280;6815;59.336;17.998;2023-07-20T10:05:35;52133.06;;;-145.37;44.32
13486;BME280;6815;59.336;17.998;2023-07-20T10:08:02;52109.13;;;-145.37;44.56
13486;BME280;6815;59.336;17.998;2023-07-20T10:10:28;52113.09;;;-145.37;44.97
13486;BME280;6815;59.336;17.998;2023-07-20T10:12:57;52107.13;;;-145.37;45.12
13486;BME280;6815;59.336;17.998;2023-07-20T10:15:32;52105.13;;;-145.37;45.02
13486;BME280;6815;59.336;17.998;2023-07-20T10:18:02;52103.13;;;-145.37;45.31
13486;BME280;6815;59.336;17.998;2023-07-20T10:20:28;52127.09;;;-145.37;45.59
13486;BME280;6815;59.336;17.998;2023-07-20T10:22:55;52111.13;;;-145.37;46.68
13486;BME280;6815;59.336;17.998;2023-07-20T10:25:23;52131.06;;;-145.37;46.75
13486;BME280;6815;59.336;17.998;2023-07-20T10:27:49;52121.09;;;-145.37;46.87
13486;BME280;6815;59.336;17.998;2023-07-20T10:30:17;52125.09;;;-145.37;46.97
13486;BME280;6815;59.336;17.998;2023-07-20T10:32:43;52125.09;;;-145.37;47.44
13486;BME280;6815;59.336;17.998;2023-07-20T10:35:16;52137.06;;;-145.37;48.00
13486;BME280;6815;59.336;17.998;2023-07-20T10:37:55;52109.13;;;-145.37;48.37
13486;BME280;6815;59.336;17.998;2023-07-20T10:40:32;52121.09;;;-145.37;47.78
13486;BME280;6815;59.336;17.998;2023-07-20T10:45:50;52101.13;;;-145.37;46.34
13486;BME280;6815;59.336;17.998;2023-07-20T10:48:21;52105.13;;;-145.37;46.56
13486;BME280;6815;59.336;17.998;2023-07-20T10:51:12;52101.13;;;-145.37;47.20
13486;BME280;6815;59.336;17.998;2023-07-20T10:53:41;52264.81;;;-145.37;47.22
13486;BME280;6815;59.336;17.998;2023-07-20T10:56:19;52145.03;;;-145.37;46.78
13486;BME280;6815;59.336;17.998;2023-07-20T10:58:46;52125.09;;;-145.37;45.73
13486;BME280;6815;59.336;17.998;2023-07-20T11:01:17;52117.09;;;-145.37;46.10
13486;BME280;6815;59.336;17.998;2023-07-20T11:03:43;52117.09;;;-145.37;47.46
13486;BME280;6815;59.336;17.998;2023-07-20T11:09:11;52121.09;;;-145.37;48.17
13486;BME280;6815;59.336;17.998;2023-07-20T11:11:39;52113.09;;;-145.37;48.02
13486;BME280;6815;59.336;17.998;2023-07-20T11:14:10;52165.00;;;-145.37;47.68
13486;BME280;6815;59.336;17.998;2023-07-20T11:16:38;52123.09;;;-145.37;47.09
13486;BME280;6815;59.336;17.998;2023-07-20T11:19:05;52107.13;;;-145.37;47.18
13486;BME280;6815;59.336;17.998;2023-07-20T11:21:38;52135.06;;;-145.37;46.71
13486;BME280;6815;59.336;17.998;2023-07-20T11:24:06;52139.06;;;-145.37;46.58
13486;BME280;6815;59.336;17.998;2023-07-20T11:26:54;52113.09;;;-145.37;46.31
13486;BME280;6815;59.336;17.998;2023-07-20T11:29:22;52127.09;;;-145.37;46.61
13486;BME280;6815;59.336;17.998;2023-07-20T11:31:48;52109.13;;;-145.37;46.61
13486;BME280;6815;59.336;17.998;2023-07-20T11:34:16;52147.03;;;-145.37;46.64
13486;BME280;6815;59.336;17.998;2023-07-20T11:36:44;52121.09;;;-145.37;46.90
13486;BME280;6815;59.336;17.998;2023-07-20T11:39:11;52129.06;;;-145.37;47.56
13486;BME280;6815;59.336;17.998;2023-07-20T11:41:37;52085.16;;;-145.37;48.45
13486;BME280;6815;59.336;17.998;2023-07-20T11:44:06;52099.13;;;-145.37;48.16
13486;BME280;6815;59.336;17.998;2023-07-20T11:46:33;52127.09;;;-145.37;48.36
13486;BME280;6815;59.336;17.998;2023-07-20T11:48:59;52115.09;;;-145.37;47.65
13486;BME280;6815;59.336;17.998;2023-07-20T11:51:26;52125.09;;;-145.37;46.07
13486;BME280;6815;59.336;17.998;2023-07-20T11:53:52;52139.06;;;-145.37;45.91
13486;BME280;6815;59.336;17.998;2023-07-20T11:56:17;52119.09;;;-145.37;45.54
13486;BME280;6815;59.336;17.998;2023-07-20T11:58:44;52173.00;;;-145.37;44.98
13486;BME280;6815;59.336;17.998;2023-07-20T12:01:09;52133.06;;;-145.37;43.70
13486;BME280;6815;59.336;17.998;2023-07-20T12:03:36;52097.13;;;-145.37;43.24
13486;BME280;6815;59.336;17.998;2023-07-20T12:06:09;52125.09;;;-145.37;43.10
13486;BME280;6815;59.336;17.998;2023-07-20T12:08:34;52091.16;;;-145.37;42.68
13486;BME280;6815;59.336;17.998;2023-07-20T12:11:00;52137.06;;;-145.37;42.21
13486;BME280;6815;59.336;17.998;2023-07-20T12:13:43;52085.16;;;-145.37;42.27
13486;BME280;6815;59.336;17.998;2023-07-20T12:16:15;52095.16;;;-145.37;42.33
13486;BME280;6815;59.336;17.998;2023-07-20T12:18:45;52085.16;;;-145.37;42.54
13486;BME280;6815;59.336;17.998;2023-07-20T12:21:10;52123.09;;;-145.37;43.15
13486;BME280;6815;59.336;17.998;2023-07-20T12:23:40;52105.13;;;-145.37;42.93
13486;BME280;6815;59.336;17.998;2023-07-20T12:26:07;52091.16;;;-145.37;42.70
13486;BME280;6815;59.336;17.998;2023-07-20T12:28:36;52131.06;;;-145.37;43.18
13486;BME280;6815;59.336;17.998;2023-07-20T12:31:04;52115.09;;;-145.37;44.06
13486;BME280;6815;59.336;17.998;2023-07-20T12:33:29;52093.16;;;-145.37;44.54
13486;BME280;6815;59.336;17.998;2023-07-20T12:35:54;52119.09;;;-145.37;45.09
13486;BME280;6815;59.336;17.998;2023-07-20T12:38:21;52093.16;;;-145.37;44.87
13486;BME280;6815;59.336;17.998;2023-07-20T12:40:49;52107.13;;;-145.37;44.84
13486;BME280;6815;59.336;17.998;2023-07-20T12:43:14;52123.09;;;-145.37;45.32
13486;BME280;6815;59.336;17.998;2023-07-20T12:45:40;52123.09;;;-145.37;45.41
13486;BME280;6815;59.336;17.998;2023-07-20T12:48:06;52059.22;;;-145.37;45.46
13486;BME280;6815;59.336;17.998;2023-07-20T12:50:32;52143.06;;;-145.37;45.93
13486;BME280;6815;59.336;17.998;2023-07-20T12:52:57;52075.19;;;-145.37;44.92
13486;BME280;6815;59.336;17.998;2023-07-20T12:55:22;52115.09;;;-145.37;44.53
13486;BME280;6815;59.336;17.998;2023-07-20T12:57:48;52071.19;;;-145.37;44.21
13486;BME280;6815;59.336;17.998;2023-07-20T13:00:14;52111.13;;;-145.37;42.39